South Pomfret, Vermont
Current Conditions -  °F | °C
As of 5:53 PM on Monday 24 Nov 2014 (Local Time) from KLEB Reporting Station
Clear Clear  
Wind Chill: 62°   Ceiling: Unl
Heat Index: 62°   Visibility: 10mi
Dew Point: 56°   Wind: 18mph
Humidity: 80%   Direction: 180°S
Pressure: 29.49"   Gusts: NA
Location:  43.66°N, 72.54°W
Report Text: KLEB 242253Z 18016KT 10SM CLR 17/13 A2949 RMK AO2 SLP984 T01670133
Loading
Personal Weather Stations






























Interactive Weather Map New forecast layout! Learn more

10-Day Weather Forecast

Advertisements
Track Severe Weather on mobile